createdAt,value
2019-01-14T00:00:12.292Z,984.06
2019-01-14T00:01:12.284Z,984.20
2019-01-14T00:02:12.271Z,984.28
2019-01-14T00:03:12.258Z,984.30
2019-01-14T00:04:12.246Z,984.14
2019-01-14T00:05:12.236Z,984.15
2019-01-14T00:06:12.240Z,984.24
2019-01-14T00:07:12.216Z,984.22
2019-01-14T00:08:12.207Z,984.35
2019-01-14T00:09:12.192Z,984.21
2019-01-14T00:10:12.182Z,984.33
2019-01-14T00:11:12.167Z,984.42
2019-01-14T00:12:12.154Z,984.41
2019-01-14T00:13:12.145Z,984.34
2019-01-14T00:14:12.133Z,984.41
2019-01-14T00:15:12.122Z,984.47
2019-01-14T00:16:12.111Z,984.30
2019-01-14T00:17:12.100Z,984.69
2019-01-14T00:18:12.089Z,984.47
2019-01-14T00:19:12.078Z,984.56
2019-01-14T00:20:12.070Z,984.47
2019-01-14T00:21:12.057Z,984.83
2019-01-14T00:22:12.045Z,984.59
2019-01-14T00:23:12.034Z,984.60
2019-01-14T00:24:12.027Z,984.91
2019-01-14T00:25:12.013Z,984.71
2019-01-14T00:26:12.001Z,984.62
2019-01-14T00:27:11.990Z,984.73
2019-01-14T00:28:11.981Z,985.11
2019-01-14T00:29:11.968Z,984.75
2019-01-14T00:30:11.958Z,984.68
2019-01-14T00:31:11.955Z,984.83
2019-01-14T00:32:11.937Z,984.81
2019-01-14T00:33:11.925Z,984.83
2019-01-14T00:34:11.916Z,984.88
2019-01-14T00:35:11.906Z,985.10
2019-01-14T00:36:17.498Z,984.96
2019-01-14T00:37:12.890Z,984.81
2019-01-14T00:38:11.949Z,984.88
2019-01-14T00:39:11.888Z,984.80
2019-01-14T00:40:11.865Z,984.77
2019-01-14T00:41:11.842Z,984.79
2019-01-14T00:42:11.833Z,984.92
2019-01-14T00:43:11.824Z,984.80
2019-01-14T00:44:11.810Z,984.92
2019-01-14T00:45:11.797Z,985.08
2019-01-14T00:46:11.788Z,984.99
2019-01-14T00:47:11.782Z,985.12
2019-01-14T00:48:11.779Z,985.03
2019-01-14T00:49:11.756Z,985.14
2019-01-14T00:50:11.749Z,985.05
2019-01-14T00:51:11.738Z,985.09
2019-01-14T00:52:11.754Z,985.18
2019-01-14T00:53:11.742Z,985.10
2019-01-14T00:54:11.724Z,985.21
2019-01-14T00:55:11.691Z,985.27
2019-01-14T00:56:11.685Z,985.28
2019-01-14T00:57:11.675Z,985.31
2019-01-14T00:58:11.659Z,985.38
2019-01-14T00:59:12.123Z,985.36
2019-01-14T01:00:11.637Z,985.37
2019-01-14T01:01:11.622Z,985.33
2019-01-14T01:02:11.614Z,985.75
2019-01-14T01:03:11.603Z,985.56
2019-01-14T01:04:11.596Z,985.41
2019-01-14T01:05:11.638Z,985.52
2019-01-14T01:06:11.678Z,985.49
2019-01-14T01:07:11.556Z,985.61
2019-01-14T01:08:11.546Z,985.45
2019-01-14T01:09:11.538Z,985.59
2019-01-14T01:10:11.533Z,985.71
2019-01-14T01:11:11.520Z,985.72
2019-01-14T01:12:11.500Z,985.73
2019-01-14T01:13:11.491Z,985.80
2019-01-14T01:14:11.479Z,985.81
2019-01-14T01:15:11.472Z,985.72
2019-01-14T01:16:11.462Z,985.68
2019-01-14T01:17:11.480Z,985.84
2019-01-14T01:18:11.435Z,985.74
2019-01-14T01:19:11.425Z,985.83
2019-01-14T01:20:11.413Z,985.88
2019-01-14T01:21:11.402Z,985.74
2019-01-14T01:22:11.400Z,985.92
2019-01-14T01:23:11.384Z,985.90
2019-01-14T01:24:11.371Z,985.93
2019-01-14T01:25:11.361Z,986.11
2019-01-14T01:26:11.348Z,986.01
2019-01-14T01:27:11.345Z,986.00
2019-01-14T01:28:11.335Z,986.09
2019-01-14T01:29:11.335Z,986.15
2019-01-14T01:30:11.306Z,985.97
2019-01-14T01:31:11.296Z,986.02
2019-01-14T01:32:11.285Z,986.12
2019-01-14T01:33:11.274Z,985.98
2019-01-14T01:34:11.271Z,986.16
2019-01-14T01:35:11.256Z,986.30
2019-01-14T01:36:11.240Z,986.26
2019-01-14T01:37:11.230Z,986.32
2019-01-14T01:38:11.220Z,986.36
2019-01-14T01:39:11.212Z,986.31
2019-01-14T01:40:11.206Z,986.31
2019-01-14T01:41:11.194Z,986.24
2019-01-14T01:42:11.176Z,986.29
2019-01-14T01:43:11.165Z,986.29
2019-01-14T01:44:11.157Z,986.27
2019-01-14T01:45:11.300Z,986.32
2019-01-14T01:46:11.145Z,986.46
2019-01-14T01:47:11.122Z,986.46
2019-01-14T01:48:11.115Z,986.59
2019-01-14T01:49:11.103Z,986.52
2019-01-14T01:50:11.106Z,986.53
2019-01-14T01:51:11.080Z,986.62
2019-01-14T01:52:11.074Z,986.62
2019-01-14T01:53:11.059Z,986.57
2019-01-14T01:54:11.047Z,986.63
2019-01-14T01:55:11.038Z,986.68
2019-01-14T01:56:11.039Z,986.79
2019-01-14T01:57:11.017Z,986.83
2019-01-14T01:58:11.019Z,986.98
2019-01-14T01:59:11.004Z,987.14
2019-01-14T02:00:10.984Z,987.20
2019-01-14T02:01:10.971Z,986.95
2019-01-14T02:02:10.971Z,987.05
2019-01-14T02:03:10.958Z,987.25
2019-01-14T02:04:10.939Z,987.20
2019-01-14T02:05:10.927Z,987.19
2019-01-14T02:06:10.916Z,987.16
2019-01-14T02:07:10.907Z,987.06
2019-01-14T02:08:10.901Z,987.28
2019-01-14T02:09:10.893Z,987.26
2019-01-14T02:10:10.879Z,987.25
2019-01-14T02:11:10.863Z,987.24
2019-01-14T02:12:10.852Z,987.41
2019-01-14T02:13:10.841Z,987.45
2019-01-14T02:14:10.833Z,987.48
2019-01-14T02:15:10.846Z,987.21
2019-01-14T02:16:10.810Z,987.28
2019-01-14T02:17:10.799Z,987.41
2019-01-14T02:18:10.789Z,987.58
2019-01-14T02:19:10.789Z,987.41
2019-01-14T02:20:10.772Z,987.44
2019-01-14T02:21:10.764Z,987.66
2019-01-14T02:22:10.763Z,987.55
2019-01-14T02:23:10.738Z,987.47
2019-01-14T02:24:10.729Z,987.55
2019-01-14T02:25:10.714Z,987.66
2019-01-14T02:26:10.706Z,987.57
2019-01-14T02:27:10.705Z,987.65
2019-01-14T02:28:10.696Z,987.67
2019-01-14T02:29:10.672Z,987.70
2019-01-14T02:30:10.671Z,987.63
2019-01-14T02:31:10.648Z,987.77
2019-01-14T02:32:10.645Z,987.71
2019-01-14T02:33:10.624Z,987.66
2019-01-14T02:34:10.613Z,987.66
2019-01-14T02:35:10.601Z,987.75
2019-01-14T02:36:10.602Z,987.65
2019-01-14T02:37:10.583Z,987.74
2019-01-14T02:38:10.569Z,987.78
2019-01-14T02:39:10.559Z,987.69
2019-01-14T02:40:10.553Z,987.75
2019-01-14T02:41:10.544Z,987.86
2019-01-14T02:42:10.526Z,987.80
2019-01-14T02:43:10.518Z,987.92
2019-01-14T02:44:10.505Z,987.81
2019-01-14T02:45:10.497Z,987.97
2019-01-14T02:46:10.485Z,987.91
2019-01-14T02:47:10.474Z,988.02
2019-01-14T02:48:10.460Z,987.87
2019-01-14T02:49:10.458Z,988.13
2019-01-14T02:50:10.443Z,988.03
2019-01-14T02:51:10.437Z,988.03
2019-01-14T02:52:10.420Z,988.07
2019-01-14T02:53:10.407Z,988.06
2019-01-14T02:54:10.467Z,988.18
2019-01-14T02:55:10.385Z,988.24
2019-01-14T02:56:10.378Z,988.39
2019-01-14T02:57:10.365Z,988.33
2019-01-14T02:58:10.354Z,988.33
2019-01-14T02:59:10.341Z,988.43
2019-01-14T03:00:10.339Z,988.42
2019-01-14T03:01:10.323Z,988.46
2019-01-14T03:02:10.309Z,988.47
2019-01-14T03:03:10.298Z,988.59
2019-01-14T03:04:10.286Z,988.44
2019-01-14T03:05:10.276Z,988.61
2019-01-14T03:06:10.269Z,988.69
2019-01-14T03:07:10.257Z,988.75
2019-01-14T03:08:10.257Z,988.58
2019-01-14T03:09:10.235Z,988.68
2019-01-14T03:10:10.225Z,988.84
2019-01-14T03:11:10.211Z,988.76
2019-01-14T03:12:10.202Z,988.75
2019-01-14T03:13:10.194Z,988.75
2019-01-14T03:14:10.189Z,988.79
2019-01-14T03:15:10.169Z,988.77
2019-01-14T03:16:10.156Z,988.92
2019-01-14T03:17:10.145Z,988.84
2019-01-14T03:18:10.144Z,989.16
2019-01-14T03:19:10.129Z,989.00
2019-01-14T03:20:10.114Z,988.99
2019-01-14T03:21:10.113Z,989.03
2019-01-14T03:22:10.101Z,989.11
2019-01-14T03:23:10.085Z,989.09
2019-01-14T03:24:10.072Z,989.21
2019-01-14T03:25:10.067Z,989.22
2019-01-14T03:26:10.057Z,989.21
2019-01-14T03:27:10.049Z,989.34
2019-01-14T03:28:10.037Z,989.18
2019-01-14T03:29:10.022Z,989.30
2019-01-14T03:30:10.011Z,989.18
2019-01-14T03:31:10.019Z,989.25
2019-01-14T03:32:09.990Z,989.25
2019-01-14T03:33:09.983Z,989.24
2019-01-14T03:34:09.968Z,989.34
2019-01-14T03:35:09.964Z,989.33
2019-01-14T03:36:09.943Z,989.56
2019-01-14T03:37:09.939Z,989.74
2019-01-14T03:38:09.925Z,989.48
2019-01-14T03:39:09.910Z,989.56
2019-01-14T03:40:09.904Z,989.51
2019-01-14T03:41:09.894Z,989.66
2019-01-14T03:42:09.890Z,989.67
2019-01-14T03:43:09.878Z,989.55
2019-01-14T03:44:09.863Z,989.67
2019-01-14T03:45:09.868Z,989.68
2019-01-14T03:46:09.838Z,989.70
2019-01-14T03:47:09.836Z,989.71
2019-01-14T03:48:09.818Z,989.74
2019-01-14T03:49:09.814Z,989.70
2019-01-14T03:50:09.796Z,989.77
2019-01-14T03:51:09.794Z,989.76
2019-01-14T03:52:09.771Z,989.92
2019-01-14T03:53:09.772Z,989.88
2019-01-14T03:54:09.750Z,989.82
2019-01-14T03:55:09.738Z,989.80
2019-01-14T03:56:09.729Z,989.85
2019-01-14T03:57:09.714Z,989.82
2019-01-14T03:58:09.709Z,989.98
2019-01-14T03:59:09.690Z,990.04
2019-01-14T04:00:09.684Z,989.89
2019-01-14T04:01:09.672Z,990.06
2019-01-14T04:02:09.661Z,990.00
2019-01-14T04:03:09.649Z,989.99
2019-01-14T04:04:09.635Z,990.13
2019-01-14T04:05:09.624Z,990.11
2019-01-14T04:06:09.626Z,990.04
2019-01-14T04:07:13.868Z,990.13
2019-01-14T04:08:09.597Z,989.96
2019-01-14T04:09:09.580Z,989.93
2019-01-14T04:10:09.572Z,989.90
2019-01-14T04:11:09.566Z,990.16
2019-01-14T04:12:09.552Z,990.12
2019-01-14T04:13:09.545Z,990.25
2019-01-14T04:14:09.540Z,990.13
2019-01-14T04:15:09.525Z,990.06
2019-01-14T04:16:09.525Z,990.21
2019-01-14T04:17:09.497Z,990.19
2019-01-14T04:18:09.488Z,990.29
2019-01-14T04:19:09.471Z,990.24
2019-01-14T04:20:09.472Z,990.27
2019-01-14T04:21:09.457Z,990.26
2019-01-14T04:22:09.451Z,990.40
2019-01-14T04:23:09.436Z,990.47
2019-01-14T04:24:09.427Z,990.44
2019-01-14T04:25:09.414Z,990.63
2019-01-14T04:26:09.409Z,990.49
2019-01-14T04:27:09.451Z,990.57
2019-01-14T04:28:09.398Z,990.45
2019-01-14T04:29:09.373Z,990.46
2019-01-14T04:30:09.372Z,990.68
2019-01-14T04:31:09.351Z,990.41
2019-01-14T04:32:09.342Z,990.46
2019-01-14T04:33:09.332Z,990.49
2019-01-14T04:34:09.318Z,990.53
2019-01-14T04:35:09.315Z,990.60
2019-01-14T04:36:09.299Z,990.55
2019-01-14T04:37:09.284Z,990.69
2019-01-14T04:38:09.280Z,990.70
2019-01-14T04:39:09.265Z,990.56
2019-01-14T04:40:09.260Z,990.71
2019-01-14T04:41:09.254Z,990.62
2019-01-14T04:42:09.232Z,990.62
2019-01-14T04:43:09.220Z,990.64
2019-01-14T04:44:09.211Z,990.78
2019-01-14T04:45:09.199Z,990.77
2019-01-14T04:46:09.182Z,990.77
2019-01-14T04:47:09.171Z,990.82
2019-01-14T04:48:09.159Z,990.69
2019-01-14T04:49:09.158Z,990.89
2019-01-14T04:50:09.138Z,990.90
2019-01-14T04:51:09.129Z,991.20
2019-01-14T04:52:09.118Z,990.93
2019-01-14T04:53:09.123Z,991.03
2019-01-14T04:54:09.094Z,991.07
2019-01-14T04:55:09.090Z,991.02
2019-01-14T04:56:09.082Z,991.13
2019-01-14T04:57:09.062Z,991.18
2019-01-14T04:58:09.051Z,991.48
2019-01-14T04:59:09.043Z,991.25
2019-01-14T05:00:09.032Z,991.23
2019-01-14T05:01:09.018Z,991.25
2019-01-14T05:02:09.012Z,991.27
2019-01-14T05:03:09.003Z,991.39
2019-01-14T05:04:08.986Z,991.21
2019-01-14T05:05:08.994Z,991.23
2019-01-14T05:06:08.967Z,991.44
2019-01-14T05:07:08.957Z,991.44
2019-01-14T05:08:08.948Z,991.36
2019-01-14T05:09:08.941Z,991.32
2019-01-14T05:10:08.925Z,991.37
2019-01-14T05:11:08.912Z,991.33
2019-01-14T05:12:08.905Z,991.49
2019-01-14T05:13:08.902Z,991.61
2019-01-14T05:14:08.896Z,991.63
2019-01-14T05:15:08.880Z,991.47
2019-01-14T05:16:08.874Z,991.45
2019-01-14T05:17:08.848Z,991.51
2019-01-14T05:18:08.839Z,991.46
2019-01-14T05:19:08.842Z,991.66
2019-01-14T05:20:08.828Z,991.41
2019-01-14T05:21:08.816Z,991.54
2019-01-14T05:22:08.798Z,991.51
2019-01-14T05:23:08.795Z,991.70
2019-01-14T05:24:08.780Z,991.75
2019-01-14T05:25:08.769Z,991.66
2019-01-14T05:26:08.758Z,991.69
2019-01-14T05:27:08.752Z,991.58
2019-01-14T05:28:08.743Z,991.60
2019-01-14T05:29:09.424Z,991.69
2019-01-14T05:30:08.716Z,991.64
2019-01-14T05:31:08.710Z,991.74
2019-01-14T05:32:08.700Z,991.89
2019-01-14T05:33:08.681Z,991.69
2019-01-14T05:34:08.676Z,991.99
2019-01-14T05:35:08.658Z,991.75
2019-01-14T05:36:08.645Z,991.85
2019-01-14T05:37:08.649Z,991.71
2019-01-14T05:38:08.646Z,991.78
2019-01-14T05:39:08.617Z,991.81
2019-01-14T05:40:08.605Z,991.80
2019-01-14T05:41:08.599Z,991.74
2019-01-14T05:42:08.579Z,991.77
2019-01-14T05:43:08.572Z,991.82
2019-01-14T05:44:08.560Z,991.88
2019-01-14T05:45:08.564Z,991.90
2019-01-14T05:46:08.546Z,991.78
2019-01-14T05:47:08.527Z,991.87
2019-01-14T05:48:08.521Z,991.87
2019-01-14T05:49:08.514Z,991.86
2019-01-14T05:50:08.501Z,991.93
2019-01-14T05:51:08.492Z,991.83
2019-01-14T05:52:08.488Z,991.95
2019-01-14T05:53:08.470Z,991.91
2019-01-14T05:54:08.458Z,991.80
2019-01-14T05:55:08.449Z,991.97
2019-01-14T05:56:08.436Z,991.79
2019-01-14T05:57:08.440Z,991.75
2019-01-14T05:58:08.413Z,991.84
2019-01-14T05:59:08.405Z,991.84
2019-01-14T06:00:08.397Z,991.78
2019-01-14T06:01:08.385Z,991.92
2019-01-14T06:02:08.375Z,991.81
2019-01-14T06:03:08.373Z,991.85
2019-01-14T06:04:08.360Z,991.88
2019-01-14T06:05:08.348Z,991.87
2019-01-14T06:06:08.334Z,991.85
2019-01-14T06:07:08.323Z,991.76
2019-01-14T06:08:08.312Z,991.84
2019-01-14T06:09:08.308Z,991.75
2019-01-14T06:10:08.925Z,991.89
2019-01-14T06:11:08.278Z,991.91
2019-01-14T06:12:08.270Z,992.04
2019-01-14T06:13:08.260Z,991.94
2019-01-14T06:14:08.247Z,992.08
2019-01-14T06:15:08.233Z,992.01
2019-01-14T06:16:08.310Z,991.96
2019-01-14T06:17:08.349Z,991.96
2019-01-14T06:18:08.199Z,992.05
2019-01-14T06:19:08.196Z,992.07
2019-01-14T06:20:08.180Z,991.99
2019-01-14T06:21:08.181Z,992.10
2019-01-14T06:22:08.175Z,991.89
2019-01-14T06:23:08.278Z,992.02
2019-01-14T06:24:08.134Z,991.96
2019-01-14T06:25:08.389Z,992.04
2019-01-14T06:26:08.116Z,991.94
2019-01-14T06:27:08.109Z,991.94
2019-01-14T06:28:08.099Z,992.06
2019-01-14T06:29:08.083Z,991.93
2019-01-14T06:30:08.073Z,992.16
2019-01-14T06:31:08.066Z,992.11
2019-01-14T06:32:08.051Z,992.19
2019-01-14T06:33:08.109Z,992.21
2019-01-14T06:34:08.029Z,992.28
2019-01-14T06:35:08.020Z,992.21
2019-01-14T06:36:08.145Z,992.45
2019-01-14T06:37:08.005Z,992.52
2019-01-14T06:38:07.984Z,992.59
2019-01-14T06:39:07.977Z,992.59
2019-01-14T06:40:07.998Z,992.76
2019-01-14T06:41:07.962Z,992.81
2019-01-14T06:42:07.945Z,992.68
2019-01-14T06:43:07.941Z,992.83
2019-01-14T06:44:07.930Z,992.92
2019-01-14T06:45:07.914Z,992.84
2019-01-14T06:46:07.908Z,992.96
2019-01-14T06:47:07.890Z,992.91
2019-01-14T06:48:07.877Z,992.91
2019-01-14T06:49:07.873Z,992.83
2019-01-14T06:50:07.864Z,992.85
2019-01-14T06:51:07.853Z,992.83
2019-01-14T06:52:07.841Z,992.95
2019-01-14T06:53:07.825Z,992.92
2019-01-14T06:54:07.819Z,992.96
2019-01-14T06:55:07.809Z,993.03
2019-01-14T06:56:07.806Z,993.02
2019-01-14T06:57:07.783Z,993.10
2019-01-14T06:58:07.780Z,993.15
2019-01-14T06:59:07.762Z,993.28
2019-01-14T07:00:07.752Z,993.30
2019-01-14T07:01:07.753Z,993.38
2019-01-14T07:02:07.741Z,993.36
2019-01-14T07:03:07.719Z,993.40
2019-01-14T07:04:07.708Z,993.50
2019-01-14T07:05:07.696Z,993.50
2019-01-14T07:06:07.688Z,993.41
2019-01-14T07:07:07.796Z,993.41
2019-01-14T07:08:07.667Z,993.40
2019-01-14T07:09:07.654Z,993.38
2019-01-14T07:10:07.646Z,993.43
2019-01-14T07:11:07.637Z,993.40
2019-01-14T07:12:07.629Z,993.35
2019-01-14T07:13:07.621Z,993.34
2019-01-14T07:14:07.602Z,993.36
2019-01-14T07:15:07.596Z,993.41
2019-01-14T07:16:07.578Z,993.34
2019-01-14T07:17:07.568Z,993.39
2019-01-14T07:18:07.563Z,993.42
2019-01-14T07:19:07.558Z,993.46
2019-01-14T07:20:07.541Z,993.49
2019-01-14T07:21:07.549Z,993.62
2019-01-14T07:22:07.516Z,993.66
2019-01-14T07:23:08.287Z,993.69
2019-01-14T07:24:07.495Z,993.76
2019-01-14T07:25:07.493Z,993.87
2019-01-14T07:26:07.484Z,993.81
2019-01-14T07:27:07.465Z,993.86
2019-01-14T07:28:07.450Z,993.93
2019-01-14T07:29:07.441Z,993.89
2019-01-14T07:30:07.437Z,993.98
2019-01-14T07:31:07.445Z,993.89
2019-01-14T07:32:07.413Z,994.00
2019-01-14T07:33:07.399Z,993.97
2019-01-14T07:34:07.387Z,993.99
2019-01-14T07:35:07.377Z,993.97
2019-01-14T07:36:07.372Z,993.97
2019-01-14T07:37:07.363Z,994.06
2019-01-14T07:38:07.372Z,993.98
2019-01-14T07:39:07.335Z,994.05
2019-01-14T07:40:07.330Z,993.99
2019-01-14T07:41:07.317Z,994.02
2019-01-14T07:42:07.306Z,993.97
2019-01-14T07:43:07.304Z,994.08
2019-01-14T07:44:07.285Z,994.01
2019-01-14T07:45:07.279Z,994.07
2019-01-14T07:46:07.259Z,994.04
2019-01-14T07:47:07.249Z,994.03
2019-01-14T07:48:07.243Z,994.02
2019-01-14T07:49:07.239Z,994.05
2019-01-14T07:50:07.221Z,994.16
2019-01-14T07:51:07.205Z,994.09
2019-01-14T07:52:07.201Z,994.15
2019-01-14T07:53:07.184Z,994.17
2019-01-14T07:54:07.185Z,994.13
2019-01-14T07:55:07.179Z,994.13
2019-01-14T07:56:07.155Z,994.10
2019-01-14T07:57:07.142Z,994.23
2019-01-14T07:58:07.133Z,994.15
2019-01-14T07:59:07.123Z,994.23
2019-01-14T08:00:07.114Z,994.21
2019-01-14T08:01:07.120Z,994.21
2019-01-14T08:02:07.091Z,994.24
2019-01-14T08:03:07.080Z,994.26
2019-01-14T08:04:07.067Z,994.24
2019-01-14T08:05:07.059Z,994.25
2019-01-14T08:06:07.051Z,994.28
2019-01-14T08:07:07.047Z,994.39
2019-01-14T08:08:13.766Z,994.35
2019-01-14T08:09:08.981Z,994.43
2019-01-14T08:10:07.003Z,994.45
2019-01-14T08:11:06.994Z,994.54
2019-01-14T08:12:06.989Z,994.56
2019-01-14T08:13:06.998Z,994.70
2019-01-14T08:14:06.983Z,994.54
2019-01-14T08:15:06.950Z,994.53
2019-01-14T08:16:06.939Z,994.38
2019-01-14T08:17:06.929Z,994.70
2019-01-14T08:18:06.929Z,994.75
2019-01-14T08:19:06.925Z,994.57
2019-01-14T08:20:06.899Z,994.54
2019-01-14T08:21:06.889Z,994.58
2019-01-14T08:22:06.875Z,994.69
2019-01-14T08:23:06.868Z,994.60
2019-01-14T08:24:06.861Z,994.59
2019-01-14T08:25:06.855Z,994.60
2019-01-14T08:26:06.832Z,994.66
2019-01-14T08:27:06.824Z,994.66
2019-01-14T08:28:06.812Z,994.62
2019-01-14T08:29:06.804Z,994.62
2019-01-14T08:30:06.801Z,994.65
2019-01-14T08:31:06.791Z,994.75
2019-01-14T08:32:06.767Z,994.68
2019-01-14T08:33:06.757Z,994.67
2019-01-14T08:34:06.746Z,994.73
2019-01-14T08:35:06.742Z,994.70
2019-01-14T08:36:06.740Z,994.73
2019-01-14T08:37:06.730Z,994.72
2019-01-14T08:38:06.705Z,994.74
2019-01-14T08:39:06.693Z,994.86
2019-01-14T08:40:06.682Z,994.93
2019-01-14T08:41:06.675Z,994.77
2019-01-14T08:42:06.662Z,994.80
2019-01-14T08:43:06.646Z,994.85
2019-01-14T08:44:06.636Z,994.88
2019-01-14T08:45:06.624Z,994.88
2019-01-14T08:46:06.613Z,994.94
2019-01-14T08:47:06.602Z,994.95
2019-01-14T08:48:06.598Z,994.91
2019-01-14T08:49:06.581Z,994.84
2019-01-14T08:50:06.570Z,994.94
2019-01-14T08:51:06.560Z,994.88
2019-01-14T08:52:06.550Z,994.90
2019-01-14T08:53:06.543Z,994.86
2019-01-14T08:54:06.532Z,994.90
2019-01-14T08:55:06.517Z,994.93
2019-01-14T08:56:06.509Z,994.86
2019-01-14T08:57:06.498Z,995.04
2019-01-14T08:58:06.487Z,995.03
2019-01-14T08:59:06.477Z,994.95
2019-01-14T09:00:06.465Z,995.04
2019-01-14T09:01:06.454Z,995.02
2019-01-14T09:02:06.443Z,995.16
2019-01-14T09:03:06.431Z,995.37
2019-01-14T09:04:06.422Z,995.20
2019-01-14T09:05:06.418Z,995.32
2019-01-14T09:06:06.404Z,995.28
2019-01-14T09:07:06.389Z,995.23
2019-01-14T09:08:06.383Z,995.13
2019-01-14T09:09:06.366Z,995.32
2019-01-14T09:10:06.367Z,995.36
2019-01-14T09:11:06.350Z,995.16
2019-01-14T09:12:06.337Z,995.26
2019-01-14T09:13:06.324Z,995.26
2019-01-14T09:14:06.315Z,995.31
2019-01-14T09:15:06.307Z,995.44
2019-01-14T09:16:06.299Z,995.37
2019-01-14T09:17:06.295Z,995.34
2019-01-14T09:18:06.275Z,995.33
2019-01-14T09:19:06.261Z,995.30
2019-01-14T09:20:06.250Z,995.36
2019-01-14T09:21:06.239Z,995.40
2019-01-14T09:22:06.235Z,995.51
2019-01-14T09:23:06.228Z,995.48
2019-01-14T09:24:06.215Z,995.46
2019-01-14T09:25:06.197Z,995.36
2019-01-14T09:26:06.186Z,995.42
2019-01-14T09:27:06.181Z,995.48
2019-01-14T09:28:06.168Z,995.48
2019-01-14T09:29:06.170Z,995.50
2019-01-14T09:30:06.149Z,995.45
2019-01-14T09:31:06.132Z,995.44
2019-01-14T09:32:06.124Z,995.53
2019-01-14T09:33:06.119Z,995.54
2019-01-14T09:34:06.107Z,995.73
2019-01-14T09:35:06.095Z,995.54
2019-01-14T09:36:06.081Z,995.64
2019-01-14T09:37:06.068Z,995.61
2019-01-14T09:38:06.063Z,995.62
2019-01-14T09:39:06.053Z,995.54
2019-01-14T09:40:06.044Z,995.56
2019-01-14T09:41:06.038Z,995.61
2019-01-14T09:42:06.023Z,995.54
2019-01-14T09:43:06.010Z,995.65
2019-01-14T09:44:06.004Z,995.67
2019-01-14T09:45:05.987Z,995.59
2019-01-14T09:46:05.986Z,995.56
2019-01-14T09:47:05.975Z,995.75
2019-01-14T09:48:05.955Z,995.61
2019-01-14T09:49:05.942Z,995.95
2019-01-14T09:50:05.931Z,995.64
2019-01-14T09:51:05.921Z,995.73
2019-01-14T09:52:05.917Z,995.66
2019-01-14T09:53:05.917Z,995.66
2019-01-14T09:54:05.894Z,995.63
2019-01-14T09:55:05.983Z,995.63
2019-01-14T09:56:05.872Z,995.77
2019-01-14T09:57:05.856Z,995.49
2019-01-14T09:58:05.852Z,995.54
2019-01-14T09:59:05.858Z,995.36
2019-01-14T10:00:05.832Z,995.61
2019-01-14T10:01:05.819Z,995.64
2019-01-14T10:02:05.823Z,995.64
2019-01-14T10:03:07.330Z,995.63
2019-01-14T10:04:05.792Z,995.68
2019-01-14T10:05:05.776Z,995.68
2019-01-14T10:06:05.763Z,995.67
2019-01-14T10:07:05.750Z,995.70
2019-01-14T10:08:05.813Z,995.74
2019-01-14T10:09:05.734Z,995.77
2019-01-14T10:10:05.723Z,995.58
2019-01-14T10:11:05.708Z,995.56
2019-01-14T10:12:05.698Z,995.69
2019-01-14T10:13:05.687Z,995.65
2019-01-14T10:14:05.675Z,995.66
2019-01-14T10:15:05.675Z,995.67
2019-01-14T10:16:05.654Z,995.64
2019-01-14T10:17:05.648Z,995.68
2019-01-14T10:18:05.687Z,995.65
2019-01-14T10:19:05.621Z,995.95
2019-01-14T10:20:05.611Z,995.61
2019-01-14T10:21:05.603Z,995.64
2019-01-14T10:22:05.598Z,995.74
2019-01-14T10:23:05.583Z,995.58
2019-01-14T10:24:05.578Z,995.70
2019-01-14T10:25:05.557Z,995.77
2019-01-14T10:26:05.554Z,995.62
2019-01-14T10:27:05.537Z,995.62
2019-01-14T10:28:05.529Z,995.80
2019-01-14T10:29:05.515Z,995.50
2019-01-14T10:30:05.506Z,995.95
2019-01-14T10:31:05.501Z,995.52
2019-01-14T10:32:05.487Z,995.65
2019-01-14T10:33:05.479Z,995.76
2019-01-14T10:34:05.469Z,995.67
2019-01-14T10:35:05.452Z,995.63
2019-01-14T10:36:05.441Z,995.61
2019-01-14T10:37:05.436Z,995.64
2019-01-14T10:38:05.424Z,995.67
2019-01-14T10:39:05.420Z,995.78
2019-01-14T10:40:05.406Z,995.78
2019-01-14T10:41:05.386Z,995.84
2019-01-14T10:42:05.412Z,995.59
2019-01-14T10:43:05.369Z,995.60
2019-01-14T10:44:05.363Z,995.74
2019-01-14T10:45:05.350Z,995.74
2019-01-14T10:46:05.341Z,995.70
2019-01-14T10:47:05.325Z,995.77
2019-01-14T10:48:05.323Z,995.65
2019-01-14T10:49:06.849Z,995.66
2019-01-14T10:50:05.302Z,995.65
2019-01-14T10:51:05.286Z,995.83
2019-01-14T10:52:05.287Z,995.78
2019-01-14T10:53:05.266Z,995.75
2019-01-14T10:54:05.257Z,995.64
2019-01-14T10:55:12.075Z,995.48
2019-01-14T10:56:06.236Z,995.82
2019-01-14T10:57:05.227Z,995.77
2019-01-14T10:58:05.206Z,995.66
2019-01-14T10:59:05.197Z,995.77
2019-01-14T11:00:05.190Z,995.75
2019-01-14T11:01:05.180Z,995.78
2019-01-14T11:02:05.177Z,995.77
2019-01-14T11:03:05.157Z,995.77
2019-01-14T11:04:05.158Z,995.88
2019-01-14T11:05:05.133Z,995.82
2019-01-14T11:06:05.136Z,995.72
2019-01-14T11:07:05.120Z,995.70
2019-01-14T11:08:05.108Z,995.85
2019-01-14T11:09:06.062Z,995.78
2019-01-14T11:10:05.087Z,995.73
2019-01-14T11:11:05.070Z,995.75
2019-01-14T11:12:05.066Z,995.76
2019-01-14T11:13:05.055Z,995.81
2019-01-14T11:14:05.046Z,995.88
2019-01-14T11:15:05.038Z,995.77
2019-01-14T11:16:05.025Z,995.81
2019-01-14T11:17:05.016Z,995.76
2019-01-14T11:18:04.998Z,995.75
2019-01-14T11:19:04.986Z,995.84
2019-01-14T11:20:04.974Z,995.81
2019-01-14T11:21:04.970Z,995.77
2019-01-14T11:22:04.953Z,995.90
2019-01-14T11:23:04.945Z,995.91
2019-01-14T11:24:04.937Z,995.88
2019-01-14T11:25:04.931Z,995.89
2019-01-14T11:26:04.909Z,995.93
2019-01-14T11:27:04.905Z,995.83
2019-01-14T11:28:04.895Z,995.99
2019-01-14T11:29:04.883Z,995.82
2019-01-14T11:30:04.874Z,995.91
2019-01-14T11:31:04.863Z,995.82
2019-01-14T11:32:04.846Z,995.97
2019-01-14T11:33:04.841Z,996.10
2019-01-14T11:34:04.835Z,996.06
2019-01-14T11:35:04.836Z,996.15
2019-01-14T11:36:04.815Z,996.22
2019-01-14T11:37:04.798Z,996.01
2019-01-14T11:38:04.787Z,996.11
2019-01-14T11:39:05.376Z,996.03
2019-01-14T11:40:04.761Z,996.00
2019-01-14T11:41:04.882Z,995.99
2019-01-14T11:42:04.754Z,996.00
2019-01-14T11:43:04.782Z,996.05
2019-01-14T11:44:07.672Z,996.05
2019-01-14T11:45:04.718Z,996.13
2019-01-14T11:46:04.695Z,996.00
2019-01-14T11:47:04.688Z,995.98
2019-01-14T11:48:04.684Z,996.07
2019-01-14T11:49:04.670Z,995.97
2019-01-14T11:50:04.658Z,996.02
2019-01-14T11:51:04.646Z,996.00
2019-01-14T11:52:04.632Z,996.02
2019-01-14T11:53:04.632Z,996.04
2019-01-14T11:54:04.625Z,996.12
2019-01-14T11:55:04.603Z,996.10
2019-01-14T11:56:04.589Z,996.11
2019-01-14T11:57:04.581Z,996.11
2019-01-14T11:58:04.576Z,996.15
2019-01-14T11:59:04.565Z,996.09
2019-01-14T12:00:04.555Z,996.29
2019-01-14T12:01:04.538Z,996.40
2019-01-14T12:02:04.526Z,996.63
2019-01-14T12:03:04.519Z,996.43
2019-01-14T12:04:04.504Z,996.88
2019-01-14T12:05:04.498Z,996.56
2019-01-14T12:06:04.514Z,996.47
2019-01-14T12:07:04.489Z,996.40
2019-01-14T12:08:04.473Z,996.32
2019-01-14T12:09:04.459Z,996.31
2019-01-14T12:10:04.445Z,996.67
2019-01-14T12:11:04.433Z,996.40
2019-01-14T12:12:04.422Z,996.55
2019-01-14T12:13:04.407Z,996.41
2019-01-14T12:14:05.537Z,996.44
2019-01-14T12:15:04.666Z,996.40
2019-01-14T12:16:04.383Z,996.54
2019-01-14T12:17:04.375Z,996.46
2019-01-14T12:18:04.376Z,996.37
2019-01-14T12:19:04.347Z,996.37
2019-01-14T12:20:04.335Z,996.43
2019-01-14T12:21:06.325Z,996.44
2019-01-14T12:22:05.162Z,996.47
2019-01-14T12:23:04.959Z,996.81
2019-01-14T12:24:04.964Z,996.73
2019-01-14T12:25:04.318Z,996.88
2019-01-14T12:26:04.276Z,996.52
2019-01-14T12:27:04.412Z,996.51
2019-01-14T12:28:04.251Z,996.45